Time;durP1;ratioP1;P1;durP2;ratioP2;P2;SDS_P1;SDS_P2;PMS_P1;PMS_P2;Temp;Humidity;BMP_temperature;BMP_pressure;BME280_temperature;BME280_humidity;BME280_pressure;Samples;Min_cycle;Max_cycle;Signal;HPM_P1;HPM_P2
2021/12/30 00:00:31;;;;;;;243.27;65.13;;;1.90;99.90;;;;;;5055926;28;20243;-70
2021/12/30 00:03:20;;;;;;;258.93;67.07;;;1.90;99.90;;;;;;5054465;28;20212;-71
2021/12/30 00:06:09;;;;;;;260.37;67.20;;;1.90;99.90;;;;;;5038310;28;20887;-70
2021/12/30 00:08:58;;;;;;;244.40;64.80;;;1.90;99.90;;;;;;5058093;28;20219;-71
2021/12/30 00:11:47;;;;;;;231.43;62.57;;;1.90;99.90;;;;;;5056857;28;20741;-70
2021/12/30 00:14:57;;;;;;;258.57;64.83;;;2.00;99.90;;;;;;5057913;28;20237;-71
2021/12/30 00:17:45;;;;;;;232.87;65.63;;;2.00;99.90;;;;;;5057204;28;20220;-71
2021/12/30 00:20:34;;;;;;;226.60;63.30;;;2.00;99.90;;;;;;5043892;28;20225;-71
2021/12/30 00:23:23;;;;;;;245.10;66.33;;;2.00;99.90;;;;;;5054404;28;20212;-70
2021/12/30 00:26:12;;;;;;;259.60;66.47;;;2.00;99.90;;;;;;5043570;28;20236;-70
2021/12/30 00:29:04;;;;;;;270.93;67.27;;;2.00;99.90;;;;;;5052301;28;20224;-70
2021/12/30 00:31:54;;;;;;;254.23;69.13;;;2.10;99.90;;;;;;5044183;28;20220;-70
2021/12/30 00:34:43;;;;;;;258.73;67.93;;;2.10;99.90;;;;;;5044033;28;20221;-71
2021/12/30 00:37:31;;;;;;;249.47;68.00;;;2.10;99.90;;;;;;5052792;28;20522;-70
2021/12/30 00:40:20;;;;;;;264.13;70.00;;;2.10;99.90;;;;;;5058311;28;20246;-70
2021/12/30 00:43:09;;;;;;;270.90;66.80;;;2.10;99.90;;;;;;5059120;28;20314;-71
2021/12/30 00:45:57;;;;;;;251.63;67.60;;;2.20;99.90;;;;;;5045661;28;20311;-69
2021/12/30 00:48:48;;;;;;;255.17;67.87;;;2.10;99.90;;;;;;5059377;28;20778;-71
2021/12/30 00:51:37;;;;;;;243.53;66.50;;;2.20;99.90;;;;;;5057127;28;20227;-72
2021/12/30 00:54:26;;;;;;;240.97;66.07;;;2.20;99.90;;;;;;5053994;28;20227;-71
2021/12/30 00:57:14;;;;;;;261.40;67.53;;;2.20;99.90;;;;;;5041522;28;20224;-71
2021/12/30 01:00:07;;;;;;;251.70;69.03;;;2.20;99.90;;;;;;5051828;28;20229;-72
2021/12/30 01:02:55;;;;;;;283.90;69.90;;;2.20;99.90;;;;;;5054336;28;20224;-71
2021/12/30 01:05:46;;;;;;;237.90;65.73;;;2.30;99.90;;;;;;5051888;28;20798;-70
2021/12/30 01:08:35;;;;;;;233.87;66.77;;;2.30;99.90;;;;;;5057456;28;20220;-72
2021/12/30 01:11:25;;;;;;;229.67;65.47;;;2.30;99.90;;;;;;5044011;28;20228;-69
2021/12/30 01:14:18;;;;;;;252.40;68.50;;;2.30;99.90;;;;;;5042727;28;20229;-70
2021/12/30 01:17:17;;;;;;;242.00;68.27;;;2.30;99.90;;;;;;5054873;28;20224;-72
2021/12/30 01:20:07;;;;;;;231.33;65.07;;;2.30;99.90;;;;;;5058026;28;20216;-71
2021/12/30 01:22:57;;;;;;;254.00;68.37;;;2.40;99.90;;;;;;5046083;28;20213;-72
2021/12/30 01:25:46;;;;;;;242.60;67.77;;;2.30;99.90;;;;;;5053620;28;20236;-70
2021/12/30 01:28:35;;;;;;;232.43;66.03;;;2.40;99.90;;;;;;5053150;28;20952;-71
2021/12/30 01:31:24;;;;;;;251.70;68.70;;;2.40;99.90;;;;;;5051436;28;20246;-71
2021/12/30 01:34:33;;;;;;;234.77;66.03;;;2.40;99.90;;;;;;5041364;28;20307;-70
2021/12/30 01:37:23;;;;;;;221.83;63.83;;;2.40;99.90;;;;;;5045611;28;20216;-71
2021/12/30 01:40:16;;;;;;;231.73;66.27;;;2.40;99.90;;;;;;5055556;28;20785;-71
2021/12/30 01:43:05;;;;;;;219.00;65.87;;;2.50;99.90;;;;;;5052466;28;20227;-72
2021/12/30 01:45:53;;;;;;;212.03;62.70;;;2.50;99.90;;;;;;5052706;28;20221;-71
2021/12/30 01:48:43;;;;;;;238.70;65.57;;;2.50;99.90;;;;;;5057412;28;20221;-71
2021/12/30 01:51:31;;;;;;;227.97;64.80;;;2.50;99.90;;;;;;5052475;28;20244;-71
2021/12/30 01:54:21;;;;;;;223.07;65.00;;;2.50;99.90;;;;;;5042225;28;20230;-72
2021/12/30 01:57:11;;;;;;;206.73;64.90;;;2.50;99.90;;;;;;5052995;28;20220;-71
2021/12/30 01:59:59;;;;;;;211.03;64.67;;;2.50;99.90;;;;;;5053390;28;20607;-72
2021/12/30 02:02:49;;;;;;;224.70;65.87;;;2.60;99.90;;;;;;5043243;28;20216;-71
2021/12/30 02:05:39;;;;;;;219.80;64.33;;;2.60;99.90;;;;;;5052473;28;20696;-72
2021/12/30 02:08:27;;;;;;;221.20;66.50;;;2.60;99.90;;;;;;5056967;28;20219;-71
2021/12/30 02:11:18;;;;;;;218.87;64.00;;;2.60;99.90;;;;;;5050551;28;20228;-73
2021/12/30 02:14:08;;;;;;;212.43;66.60;;;2.60;99.90;;;;;;5055320;28;20232;-70
2021/12/30 02:16:57;;;;;;;215.97;63.47;;;2.70;99.90;;;;;;5040648;28;20247;-71
2021/12/30 02:19:46;;;;;;;203.00;65.40;;;2.70;99.90;;;;;;5052175;28;20289;-71
2021/12/30 02:22:36;;;;;;;205.87;65.33;;;2.70;99.90;;;;;;5055373;28;20220;-71
2021/12/30 02:25:25;;;;;;;192.37;61.97;;;2.70;99.90;;;;;;5037975;28;20646;-71
2021/12/30 02:28:16;;;;;;;193.63;62.20;;;2.70;99.90;;;;;;5040724;28;20213;-70
2021/12/30 02:31:08;;;;;;;206.47;63.90;;;2.70;99.90;;;;;;5042573;28;20231;-71
2021/12/30 02:33:57;;;;;;;198.73;61.80;;;2.80;99.90;;;;;;5056044;28;20314;-71
2021/12/30 02:36:48;;;;;;;199.90;61.77;;;2.80;99.90;;;;;;5052914;28;20228;-71
2021/12/30 02:39:39;;;;;;;203.70;63.57;;;2.80;99.90;;;;;;5052795;28;20892;-70
2021/12/30 02:42:28;;;;;;;194.93;61.87;;;2.80;99.90;;;;;;5055931;28;20224;-73
2021/12/30 02:45:16;;;;;;;196.53;61.23;;;2.80;99.90;;;;;;5056772;28;20215;-71
2021/12/30 02:48:06;;;;;;;201.47;65.50;;;2.80;99.90;;;;;;5057208;28;20239;-70
2021/12/30 02:50:58;;;;;;;197.73;63.80;;;2.80;99.90;;;;;;5045064;28;20312;-71
2021/12/30 02:53:47;;;;;;;198.53;61.57;;;2.90;99.90;;;;;;5043811;28;20585;-71
2021/12/30 02:57:02;;;;;;;188.53;63.30;;;2.90;99.90;;;;;;5046355;28;20235;-71
2021/12/30 02:59:51;;;;;;;187.23;62.60;;;2.90;99.90;;;;;;5055094;28;20681;-71
2021/12/30 03:02:40;;;;;;;201.90;62.00;;;2.90;99.90;;;;;;5040102;28;20211;-70
2021/12/30 03:05:29;;;;;;;195.07;61.67;;;2.90;99.90;;;;;;5041759;28;20625;-71
2021/12/30 03:08:18;;;;;;;207.17;65.57;;;2.90;99.90;;;;;;5054428;28;20720;-70
2021/12/30 03:11:07;;;;;;;190.47;61.87;;;2.90;99.90;;;;;;5054570;28;20232;-70
2021/12/30 03:14:00;;;;;;;191.10;63.33;;;3.00;99.90;;;;;;5044158;28;20319;-70
2021/12/30 03:16:49;;;;;;;179.77;60.80;;;3.00;99.90;;;;;;5041647;28;20227;-71
2021/12/30 03:19:38;;;;;;;175.17;59.27;;;3.00;99.90;;;;;;5058115;28;20315;-71
2021/12/30 03:22:26;;;;;;;181.77;63.53;;;3.00;99.90;;;;;;5054083;28;20315;-70
2021/12/30 03:25:16;;;;;;;180.83;61.87;;;3.00;99.90;;;;;;5047755;28;20288;-69
2021/12/30 03:28:05;;;;;;;177.27;59.60;;;3.00;99.90;;;;;;5041841;28;20598;-69
2021/12/30 03:30:58;;;;;;;167.83;58.80;;;3.00;99.90;;;;;;5047551;28;20244;-69
2021/12/30 03:33:50;;;;;;;174.67;60.00;;;3.00;99.90;;;;;;5054844;28;20325;-70
2021/12/30 03:36:39;;;;;;;174.30;61.50;;;3.10;99.90;;;;;;5058504;28;20220;-70
2021/12/30 03:39:28;;;;;;;167.70;60.13;;;3.10;99.90;;;;;;5061584;28;20232;-71
2021/12/30 03:42:20;;;;;;;170.80;60.27;;;3.10;99.90;;;;;;5054519;28;20225;-71
2021/12/30 03:45:13;;;;;;;180.17;62.80;;;3.10;99.90;;;;;;5056806;28;20243;-70
2021/12/30 03:48:04;;;;;;;176.73;62.43;;;3.10;99.90;;;;;;5054220;28;20242;-71
2021/12/30 03:50:52;;;;;;;165.90;59.80;;;3.10;99.90;;;;;;5041717;28;20220;-71
2021/12/30 03:53:45;;;;;;;172.60;61.47;;;3.10;99.90;;;;;;5055920;28;20233;-70
2021/12/30 03:56:35;;;;;;;169.20;60.70;;;3.10;99.90;;;;;;5051159;28;20240;-71
2021/12/30 03:59:23;;;;;;;173.80;63.13;;;3.10;99.90;;;;;;5056125;28;20244;-69
2021/12/30 04:02:13;;;;;;;160.57;60.10;;;3.10;99.90;;;;;;5054750;28;20251;-69
2021/12/30 04:05:04;;;;;;;175.70;61.67;;;3.10;99.90;;;;;;5037976;28;20316;-68
2021/12/30 04:07:53;;;;;;;179.97;64.83;;;3.20;99.90;;;;;;5041196;28;20220;-69
2021/12/30 04:10:42;;;;;;;179.30;61.90;;;3.20;99.90;;;;;;5056935;28;20255;-70
2021/12/30 04:13:31;;;;;;;176.27;64.50;;;3.20;99.90;;;;;;5051288;28;20224;-69
2021/12/30 04:16:23;;;;;;;183.10;63.63;;;3.20;99.90;;;;;;5044654;28;20222;-71
2021/12/30 04:19:11;;;;;;;180.30;63.77;;;3.20;99.90;;;;;;5054452;28;20363;-71
2021/12/30 04:22:02;;;;;;;184.03;63.60;;;3.20;99.90;;;;;;5058907;28;20230;-69
2021/12/30 04:24:50;;;;;;;189.60;63.63;;;3.20;99.90;;;;;;5059023;28;20243;-69
2021/12/30 04:27:40;;;;;;;183.57;62.70;;;3.20;99.90;;;;;;5057824;28;20228;-69
2021/12/30 04:30:28;;;;;;;185.70;63.43;;;3.20;99.90;;;;;;5060397;28;20232;-68
2021/12/30 04:33:17;;;;;;;183.47;64.70;;;3.20;99.90;;;;;;5057539;28;20235;-73
2021/12/30 04:36:06;;;;;;;188.17;63.40;;;3.20;99.90;;;;;;5041075;28;20225;-70
2021/12/30 04:38:56;;;;;;;187.60;62.13;;;3.20;99.90;;;;;;5059136;28;20249;-71
2021/12/30 04:41:45;;;;;;;182.53;62.53;;;3.20;99.90;;;;;;5058110;28;20217;-71
2021/12/30 04:44:34;;;;;;;175.03;61.67;;;3.20;99.90;;;;;;5043291;28;20228;-70
2021/12/30 04:47:22;;;;;;;179.30;61.40;;;3.20;99.90;;;;;;5058535;28;20496;-71
2021/12/30 04:50:13;;;;;;;176.17;63.97;;;3.30;99.90;;;;;;5056483;28;20228;-71
2021/12/30 04:53:06;;;;;;;173.80;58.87;;;3.30;99.90;;;;;;5054739;28;20259;-71
2021/12/30 04:55:56;;;;;;;175.43;61.67;;;3.30;99.90;;;;;;5057585;28;20229;-71
2021/12/30 04:58:44;;;;;;;167.07;61.23;;;3.30;99.90;;;;;;5053862;28;20226;-71
2021/12/30 05:01:33;;;;;;;166.63;61.10;;;3.30;99.90;;;;;;5058232;28;20225;-70
2021/12/30 05:04:22;;;;;;;171.37;59.90;;;3.30;99.90;;;;;;5055411;28;20221;-69
2021/12/30 05:07:11;;;;;;;160.90;59.83;;;3.30;99.90;;;;;;5054963;28;20338;-69
2021/12/30 05:09:59;;;;;;;159.63;59.27;;;3.30;99.90;;;;;;5040531;28;20232;-69
2021/12/30 05:12:50;;;;;;;158.30;59.40;;;3.30;99.90;;;;;;5040701;28;20300;-69
2021/12/30 05:15:39;;;;;;;166.07;61.43;;;3.30;99.90;;;;;;5060879;28;20216;-70
2021/12/30 05:18:32;;;;;;;162.47;59.93;;;3.30;99.90;;;;;;5054503;28;20292;-69
2021/12/30 05:21:21;;;;;;;158.33;57.87;;;3.30;99.90;;;;;;5043838;28;20260;-71
2021/12/30 05:24:09;;;;;;;161.73;58.90;;;3.40;99.90;;;;;;5052242;28;20248;-69
2021/12/30 05:26:58;;;;;;;163.00;59.47;;;3.40;99.90;;;;;;5057085;28;20822;-69
2021/12/30 05:29:48;;;;;;;158.97;58.40;;;3.40;99.90;;;;;;5057929;28;20220;-69
2021/12/30 05:32:37;;;;;;;159.90;58.40;;;3.40;99.90;;;;;;5051864;28;20382;-69
2021/12/30 05:35:26;;;;;;;157.97;57.93;;;3.40;99.90;;;;;;5040275;28;20670;-71
2021/12/30 05:38:16;;;;;;;163.77;59.30;;;3.40;99.90;;;;;;5054795;28;20658;-69
2021/12/30 05:41:05;;;;;;;161.07;57.87;;;3.40;99.90;;;;;;5052623;28;20232;-69
2021/12/30 05:43:54;;;;;;;162.93;59.30;;;3.40;99.90;;;;;;5056910;28;20795;-69
2021/12/30 05:46:48;;;;;;;148.83;57.17;;;3.40;99.90;;;;;;5056569;28;20708;-68
2021/12/30 05:49:36;;;;;;;165.53;59.20;;;3.40;99.90;;;;;;5054966;28;20222;-70
2021/12/30 05:52:25;;;;;;;179.13;58.20;;;3.40;99.90;;;;;;5056207;28;20225;-69
2021/12/30 05:55:15;;;;;;;171.17;59.97;;;3.40;99.90;;;;;;5042243;28;20235;-69
2021/12/30 05:58:04;;;;;;;159.93;58.43;;;3.50;99.90;;;;;;5056912;28;20327;-68
2021/12/30 06:00:56;;;;;;;165.67;58.27;;;3.50;99.90;;;;;;5055419;28;20245;-69
2021/12/30 06:03:46;;;;;;;169.53;58.00;;;3.50;99.90;;;;;;5054151;28;20548;-69
2021/12/30 06:06:35;;;;;;;187.43;57.57;;;3.50;99.90;;;;;;5055236;28;20323;-69
2021/12/30 06:09:25;;;;;;;166.63;58.37;;;3.50;99.90;;;;;;5054166;28;20218;-70
2021/12/30 06:12:14;;;;;;;162.17;57.17;;;3.50;99.90;;;;;;5046210;28;20276;-69
2021/12/30 06:15:03;;;;;;;164.63;57.77;;;3.50;99.90;;;;;;5040142;28;20348;-68
2021/12/30 06:17:52;;;;;;;186.67;57.13;;;3.50;99.90;;;;;;5039151;28;21768;-69
2021/12/30 06:20:42;;;;;;;176.10;58.00;;;3.50;99.90;;;;;;5052591;28;20224;-68
2021/12/30 06:23:31;;;;;;;163.33;56.83;;;3.60;99.90;;;;;;5042833;28;20376;-69
2021/12/30 06:26:19;;;;;;;185.73;59.73;;;3.60;99.90;;;;;;5055727;28;20699;-68
2021/12/30 06:29:08;;;;;;;186.87;59.87;;;3.60;99.90;;;;;;5051830;28;20247;-68
2021/12/30 06:31:57;;;;;;;174.37;59.00;;;3.60;99.90;;;;;;5051895;28;20226;-68
2021/12/30 06:34:45;;;;;;;196.87;58.83;;;3.60;99.90;;;;;;5055406;28;20258;-68
2021/12/30 06:37:36;;;;;;;178.93;58.57;;;3.60;99.90;;;;;;5055822;28;20297;-69
2021/12/30 06:40:25;;;;;;;185.40;58.50;;;3.60;99.90;;;;;;5050942;28;20235;-68
2021/12/30 06:43:13;;;;;;;177.60;55.80;;;3.60;99.90;;;;;;5039330;28;20222;-70
2021/12/30 06:46:05;;;;;;;164.77;54.97;;;3.60;99.90;;;;;;5048528;28;20226;-69
2021/12/30 06:48:54;;;;;;;175.33;52.70;;;3.70;99.90;;;;;;5034370;28;20255;-69
2021/12/30 06:51:43;;;;;;;181.07;54.73;;;3.70;99.90;;;;;;5054398;28;20714;-68
2021/12/30 06:54:33;;;;;;;169.40;53.37;;;3.60;99.90;;;;;;5054117;28;20732;-68
2021/12/30 06:57:22;;;;;;;179.63;52.43;;;3.70;99.90;;;;;;5037744;28;20498;-67
2021/12/30 07:00:12;;;;;;;190.53;55.77;;;3.70;99.90;;;;;;5040390;28;20263;-68
2021/12/30 07:03:01;;;;;;;178.77;53.37;;;3.70;99.90;;;;;;5052228;28;20238;-68
2021/12/30 07:05:52;;;;;;;167.53;53.97;;;3.70;99.90;;;;;;5042234;28;20265;-68
2021/12/30 07:08:41;;;;;;;166.30;51.90;;;3.70;99.90;;;;;;5050936;28;20225;-69
2021/12/30 07:11:31;;;;;;;180.93;51.53;;;3.70;99.90;;;;;;5052598;28;20234;-69
2021/12/30 07:14:21;;;;;;;163.60;51.57;;;3.80;99.90;;;;;;5035661;28;20224;-69
2021/12/30 07:17:10;;;;;;;166.10;51.27;;;3.80;99.90;;;;;;5044238;28;20229;-68
2021/12/30 07:19:58;;;;;;;159.13;52.07;;;3.80;99.90;;;;;;5040296;28;20867;-68
2021/12/30 07:22:47;;;;;;;169.23;52.47;;;3.80;99.90;;;;;;5053272;28;20268;-67
2021/12/30 07:25:38;;;;;;;163.47;51.27;;;3.80;99.90;;;;;;5039089;28;20241;-69
2021/12/30 07:28:28;;;;;;;168.47;52.57;;;3.80;99.90;;;;;;5035564;28;20230;-71
2021/12/30 07:31:16;;;;;;;157.13;49.17;;;3.80;99.90;;;;;;5050782;28;20229;-69
2021/12/30 07:34:05;;;;;;;161.97;48.07;;;3.80;99.90;;;;;;5052792;28;20965;-68
2021/12/30 07:36:53;;;;;;;151.67;47.23;;;3.80;99.90;;;;;;5051781;28;21267;-70
2021/12/30 07:39:42;;;;;;;150.47;46.40;;;3.80;99.90;;;;;;5056480;28;20218;-71
2021/12/30 07:42:31;;;;;;;140.00;47.67;;;3.80;99.90;;;;;;5038882;28;20585;-72
2021/12/30 07:45:21;;;;;;;149.10;46.80;;;3.90;99.90;;;;;;5038939;28;20594;-71
2021/12/30 07:48:10;;;;;;;152.73;46.27;;;3.90;99.90;;;;;;5055160;28;20364;-71
2021/12/30 07:50:59;;;;;;;144.23;46.00;;;3.90;99.90;;;;;;5038435;28;20222;-71
2021/12/30 07:53:47;;;;;;;136.20;47.17;;;3.90;99.90;;;;;;5047744;28;20218;-71
2021/12/30 07:56:36;;;;;;;125.20;43.23;;;3.90;99.90;;;;;;5056068;28;20249;-70
2021/12/30 07:59:25;;;;;;;130.80;44.47;;;4.00;99.90;;;;;;5059665;28;20357;-70
2021/12/30 08:02:15;;;;;;;135.20;45.57;;;4.00;99.90;;;;;;5057094;28;20329;-71
2021/12/30 08:05:04;;;;;;;126.83;45.83;;;4.10;99.90;;;;;;5056385;28;20219;-70
2021/12/30 08:07:53;;;;;;;133.30;47.47;;;4.10;99.90;;;;;;5043318;28;20214;-71
2021/12/30 08:10:42;;;;;;;125.73;45.47;;;4.10;99.90;;;;;;5042846;28;20218;-70
2021/12/30 08:13:30;;;;;;;128.57;45.37;;;4.10;99.90;;;;;;5045466;28;20225;-70
2021/12/30 08:16:19;;;;;;;128.03;44.23;;;4.10;99.90;;;;;;5058378;28;20593;-72
2021/12/30 08:19:09;;;;;;;122.10;43.57;;;4.20;99.90;;;;;;5054791;28;20225;-71
2021/12/30 08:21:57;;;;;;;118.83;43.93;;;4.20;99.90;;;;;;5058009;28;20224;-73
2021/12/30 08:24:46;;;;;;;127.73;44.47;;;4.20;99.90;;;;;;5053545;28;20226;-72
2021/12/30 08:27:35;;;;;;;124.50;46.20;;;4.10;99.90;;;;;;5055491;28;20214;-71
2021/12/30 08:30:27;;;;;;;123.23;44.80;;;4.20;99.90;;;;;;5043047;28;20973;-70
2021/12/30 08:33:16;;;;;;;113.43;43.90;;;4.20;99.90;;;;;;5058342;28;20678;-72
2021/12/30 08:36:06;;;;;;;109.00;42.17;;;4.10;99.90;;;;;;5044514;28;20229;-71
2021/12/30 08:38:55;;;;;;;113.53;44.23;;;4.20;99.90;;;;;;5043906;28;20242;-71
2021/12/30 08:41:44;;;;;;;116.67;42.50;;;4.20;99.90;;;;;;5055723;28;20222;-70
2021/12/30 08:44:33;;;;;;;124.37;44.70;;;4.20;99.90;;;;;;5060492;28;20334;-69
2021/12/30 08:47:22;;;;;;;118.03;42.57;;;4.20;99.90;;;;;;5057174;28;20223;-74
2021/12/30 08:50:14;;;;;;;104.23;42.63;;;4.20;99.90;;;;;;5059765;28;20233;-70
2021/12/30 08:53:08;;;;;;;114.83;43.73;;;4.30;99.90;;;;;;5056871;28;20621;-71
2021/12/30 08:55:57;;;;;;;104.40;40.67;;;4.30;99.90;;;;;;5054700;28;20247;-70
2021/12/30 08:58:46;;;;;;;118.43;43.53;;;4.40;99.90;;;;;;5051590;28;20833;-70
2021/12/30 09:01:34;;;;;;;121.20;43.80;;;4.40;99.90;;;;;;5056618;28;20316;-71
2021/12/30 09:04:26;;;;;;;118.73;43.50;;;4.40;99.90;;;;;;5041912;28;20216;-71
2021/12/30 09:07:18;;;;;;;111.53;42.23;;;4.40;99.90;;;;;;5057649;28;20746;-71
2021/12/30 09:10:10;;;;;;;119.40;45.40;;;4.40;99.90;;;;;;5051617;28;20232;-71
2021/12/30 09:12:59;;;;;;;118.17;44.07;;;4.40;99.90;;;;;;5045935;28;20224;-71
2021/12/30 09:15:48;;;;;;;121.13;44.33;;;4.50;99.90;;;;;;5040777;28;20467;-70
2021/12/30 09:18:40;;;;;;;125.53;45.23;;;4.40;99.90;;;;;;5054325;28;20220;-71
2021/12/30 09:21:29;;;;;;;131.57;46.37;;;4.50;99.90;;;;;;5054015;28;20223;-71
2021/12/30 09:24:18;;;;;;;114.77;45.23;;;4.50;99.90;;;;;;5057461;28;20223;-70
2021/12/30 09:27:08;;;;;;;115.97;44.43;;;4.50;99.90;;;;;;5040729;28;20245;-70
2021/12/30 09:29:56;;;;;;;108.47;43.20;;;4.50;99.90;;;;;;5053657;28;20242;-72
2021/12/30 09:32:47;;;;;;;121.83;45.60;;;4.50;99.90;;;;;;5046789;28;21325;-72
2021/12/30 09:35:36;;;;;;;114.83;43.90;;;4.50;99.90;;;;;;5042173;28;20227;-71
2021/12/30 09:38:25;;;;;;;119.00;45.97;;;4.50;99.90;;;;;;5055289;28;20250;-71
2021/12/30 09:41:13;;;;;;;114.20;44.30;;;4.60;99.90;;;;;;5053643;28;20223;-71
2021/12/30 09:44:04;;;;;;;107.93;44.43;;;4.60;99.90;;;;;;5045625;28;20223;-71
2021/12/30 09:46:53;;;;;;;106.20;42.63;;;4.60;99.90;;;;;;5039091;28;20224;-70
2021/12/30 09:49:42;;;;;;;114.60;45.30;;;4.60;99.90;;;;;;5053873;28;20223;-71
2021/12/30 09:52:31;;;;;;;113.37;44.43;;;4.60;99.90;;;;;;5052680;28;20232;-69
2021/12/30 09:55:19;;;;;;;111.43;45.00;;;4.60;99.90;;;;;;5055098;28;20218;-70
2021/12/30 09:58:08;;;;;;;128.60;45.47;;;4.60;99.90;;;;;;5055507;28;20226;-71
2021/12/30 10:00:59;;;;;;;113.83;46.00;;;4.60;99.90;;;;;;5054328;28;20721;-70
2021/12/30 10:03:50;;;;;;;125.33;47.00;;;4.70;99.90;;;;;;5054141;28;20228;-71
2021/12/30 10:06:43;;;;;;;124.30;46.20;;;4.70;99.90;;;;;;5053434;28;20234;-72
2021/12/30 10:09:46;;;;;;;123.97;47.73;;;4.70;99.90;;;;;;5055060;28;20219;-71
2021/12/30 10:12:40;;;;;;;123.37;46.60;;;4.80;99.90;;;;;;5049935;28;20593;-71
2021/12/30 10:15:42;;;;;;;139.57;49.50;;;4.70;99.90;;;;;;5057974;28;20299;-72
2021/12/30 10:18:45;;;;;;;128.60;46.23;;;4.80;99.90;;;;;;5041527;28;20219;-72
2021/12/30 10:21:36;;;;;;;127.10;47.63;;;4.70;99.90;;;;;;5051779;28;20240;-72
2021/12/30 10:24:33;;;;;;;118.57;48.70;;;4.70;99.90;;;;;;5054392;28;20223;-72
2021/12/30 10:27:27;;;;;;;116.07;47.43;;;4.80;99.90;;;;;;5050358;28;20980;-69
2021/12/30 10:30:29;;;;;;;122.67;48.03;;;4.70;99.90;;;;;;5039178;28;20240;-68
2021/12/30 10:33:20;;;;;;;125.40;48.10;;;4.70;99.90;;;;;;5038962;28;20255;-68
2021/12/30 10:36:16;;;;;;;126.20;48.23;;;4.80;99.90;;;;;;5037952;28;20251;-68
2021/12/30 10:39:23;;;;;;;126.57;49.90;;;4.80;99.90;;;;;;5051514;28;20819;-68
2021/12/30 10:42:21;;;;;;;117.23;46.30;;;4.80;99.90;;;;;;5051274;28;20951;-69
2021/12/30 10:45:14;;;;;;;127.13;51.07;;;4.80;99.90;;;;;;5055106;28;20270;-68
2021/12/30 10:48:03;;;;;;;124.27;50.00;;;4.80;99.90;;;;;;5042972;28;20230;-69
2021/12/30 10:50:51;;;;;;;128.47;50.13;;;4.80;99.90;;;;;;5050866;28;20755;-69
2021/12/30 10:53:41;;;;;;;117.10;50.00;;;4.80;99.90;;;;;;5056743;28;20683;-68
2021/12/30 10:56:33;;;;;;;126.53;51.57;;;4.80;99.90;;;;;;5058546;28;21000;-68
2021/12/30 10:59:26;;;;;;;127.33;49.10;;;4.90;99.90;;;;;;5052929;28;20246;-68
2021/12/30 11:02:18;;;;;;;122.37;50.17;;;4.90;99.90;;;;;;5051025;28;20214;-67
2021/12/30 11:05:10;;;;;;;110.90;48.13;;;4.90;99.90;;;;;;5039438;28;20227;-69
2021/12/30 11:07:59;;;;;;;123.87;50.10;;;4.90;99.90;;;;;;5033390;28;20219;-70
2021/12/30 11:10:49;;;;;;;121.87;49.73;;;5.00;99.90;;;;;;5041029;28;20228;-71
2021/12/30 11:13:38;;;;;;;117.27;47.83;;;5.00;99.90;;;;;;5038625;28;20216;-68
2021/12/30 11:16:26;;;;;;;114.67;48.87;;;5.10;99.90;;;;;;5054023;28;20898;-68
2021/12/30 11:19:17;;;;;;;107.93;46.23;;;5.10;99.90;;;;;;5038050;28;20231;-71
2021/12/30 11:22:12;;;;;;;115.37;47.33;;;5.20;99.90;;;;;;5051760;28;20789;-66
2021/12/30 11:25:03;;;;;;;115.57;46.03;;;5.30;99.90;;;;;;5052055;28;20258;-69
2021/12/30 11:27:55;;;;;;;114.60;46.70;;;5.40;99.90;;;;;;5051384;28;20230;-70
2021/12/30 11:30:43;;;;;;;102.20;46.60;;;5.40;99.90;;;;;;5053923;28;20232;-70
2021/12/30 11:33:32;;;;;;;98.60;44.97;;;5.40;99.90;;;;;;5044999;28;20221;-69
2021/12/30 11:36:21;;;;;;;103.27;44.73;;;5.40;99.90;;;;;;5043504;28;20312;-69
2021/12/30 11:39:15;;;;;;;97.43;45.03;;;5.50;99.90;;;;;;5057357;28;20226;-70
2021/12/30 11:42:07;;;;;;;99.80;44.53;;;5.50;99.90;;;;;;5035930;28;20220;-68
2021/12/30 11:45:00;;;;;;;92.37;43.57;;;5.50;99.90;;;;;;5036588;28;20233;-70
2021/12/30 11:47:49;;;;;;;96.00;44.33;;;5.50;99.90;;;;;;5035447;28;20212;-70
2021/12/30 11:50:39;;;;;;;103.87;46.83;;;5.50;99.90;;;;;;5039917;28;20252;-70
2021/12/30 11:53:28;;;;;;;91.33;44.00;;;5.60;99.90;;;;;;5054136;28;20227;-70
2021/12/30 11:56:22;;;;;;;94.47;47.00;;;5.70;99.90;;;;;;5042380;28;20227;-71
2021/12/30 11:59:11;;;;;;;91.93;44.03;;;5.70;99.90;;;;;;5042543;28;20314;-69
2021/12/30 12:02:28;;;;;;;107.80;49.30;;;5.70;99.90;;;;;;5038980;28;20787;-70
2021/12/30 12:05:42;;;;;;;91.43;42.90;;;5.70;99.90;;;;;;5043400;28;20454;-68
2021/12/30 12:08:44;;;;;;;91.97;43.90;;;5.60;99.90;;;;;;5057030;28;20243;-68
2021/12/30 12:11:43;;;;;;;86.67;42.77;;;5.60;99.90;;;;;;5053617;28;20224;-69
2021/12/30 12:14:35;;;;;;;90.50;43.37;;;5.60;99.90;;;;;;5045020;28;20231;-68
2021/12/30 12:17:35;;;;;;;94.47;44.37;;;5.50;99.90;;;;;;5042888;28;20223;-70
2021/12/30 12:20:28;;;;;;;85.67;42.10;;;5.50;99.90;;;;;;5045319;28;20216;-70
2021/12/30 12:23:33;;;;;;;78.40;41.03;;;5.60;99.90;;;;;;5054107;28;20748;-69
2021/12/30 12:26:24;;;;;;;84.83;40.83;;;5.60;99.90;;;;;;5050191;28;20239;-69
2021/12/30 12:29:24;;;;;;;82.70;42.07;;;5.60;99.90;;;;;;5042368;28;20228;-70
2021/12/30 12:32:16;;;;;;;83.43;42.37;;;5.60;99.90;;;;;;5038515;28;20237;-71
2021/12/30 12:35:25;;;;;;;79.20;41.23;;;5.60;99.90;;;;;;5042268;28;20231;-70
2021/12/30 12:38:13;;;;;;;79.70;41.97;;;5.60;99.90;;;;;;5036106;28;20399;-65
2021/12/30 12:41:03;;;;;;;78.63;41.30;;;5.60;99.90;;;;;;5053281;28;20711;-68
2021/12/30 12:43:56;;;;;;;67.07;38.60;;;5.70;99.90;;;;;;5040514;28;20221;-67
2021/12/30 12:46:46;;;;;;;70.03;37.37;;;5.70;99.90;;;;;;5053717;28;20597;-68
2021/12/30 12:49:44;;;;;;;74.00;39.33;;;5.80;99.90;;;;;;5055497;28;20224;-70
2021/12/30 12:52:43;;;;;;;79.80;40.33;;;5.80;99.90;;;;;;5044105;28;20216;-68
2021/12/30 12:55:38;;;;;;;70.60;39.73;;;5.80;99.90;;;;;;5055151;28;20239;-70
2021/12/30 12:58:30;;;;;;;74.00;39.00;;;5.70;99.90;;;;;;5038680;28;20220;-69
2021/12/30 13:01:21;;;;;;;73.30;39.83;;;5.60;99.90;;;;;;5047233;28;20554;-70
2021/12/30 13:04:11;;;;;;;80.17;41.43;;;5.60;99.90;;;;;;5047700;28;20232;-69
2021/12/30 13:07:08;;;;;;;83.03;42.03;;;5.60;99.90;;;;;;5040862;28;20327;-69
2021/12/30 13:09:58;;;;;;;83.33;41.93;;;5.60;99.90;;;;;;5049606;28;20235;-69
2021/12/30 13:12:47;;;;;;;80.07;42.10;;;5.50;99.90;;;;;;5037355;28;20243;-68
2021/12/30 13:15:40;;;;;;;87.83;42.30;;;5.50;99.90;;;;;;5038552;28;20230;-70
2021/12/30 13:18:30;;;;;;;83.80;42.07;;;5.50;99.90;;;;;;5052072;28;20216;-69
2021/12/30 13:21:18;;;;;;;88.30;42.83;;;5.50;99.90;;;;;;5054570;28;20236;-68
2021/12/30 13:24:07;;;;;;;85.60;45.73;;;5.50;99.90;;;;;;5059207;28;20244;-69
2021/12/30 13:26:58;;;;;;;90.93;44.90;;;5.50;99.90;;;;;;5048429;28;20231;-68
2021/12/30 13:29:49;;;;;;;91.00;45.43;;;5.40;99.90;;;;;;5043570;28;20223;-69
2021/12/30 13:32:40;;;;;;;100.63;48.83;;;5.40;99.90;;;;;;5055837;28;20216;-69
2021/12/30 13:35:32;;;;;;;105.07;47.77;;;5.40;99.90;;;;;;5042503;28;20254;-67
2021/12/30 13:38:25;;;;;;;111.47;50.67;;;5.40;99.90;;;;;;5043401;28;20254;-68
2021/12/30 13:41:15;;;;;;;110.03;49.93;;;5.40;99.90;;;;;;5049180;28;20696;-69
2021/12/30 13:44:09;;;;;;;114.87;51.80;;;5.30;99.90;;;;;;5044480;28;20596;-69
2021/12/30 13:47:15;;;;;;;112.60;51.80;;;5.30;99.90;;;;;;5036294;28;20219;-68
2021/12/30 13:50:07;;;;;;;119.10;51.40;;;5.30;99.90;;;;;;5048409;28;20739;-69
2021/12/30 13:53:00;;;;;;;121.73;52.47;;;5.20;99.90;;;;;;5049742;28;20250;-68
2021/12/30 13:55:51;;;;;;;120.10;52.47;;;5.20;99.90;;;;;;5054456;28;20224;-68
2021/12/30 13:58:42;;;;;;;121.23;53.83;;;5.20;99.90;;;;;;5057115;28;20227;-70
2021/12/30 14:01:52;;;;;;;126.53;54.60;;;5.20;99.90;;;;;;5056776;28;20638;-70
2021/12/30 14:04:41;;;;;;;120.53;54.07;;;5.20;99.90;;;;;;5055673;28;20220;-70
2021/12/30 14:07:33;;;;;;;124.30;54.33;;;5.20;99.90;;;;;;5055188;28;20220;-70
2021/12/30 14:10:22;;;;;;;123.10;54.63;;;5.20;99.90;;;;;;5054819;28;20285;-69
2021/12/30 14:13:10;;;;;;;120.43;55.43;;;5.20;99.90;;;;;;5039534;28;20215;-71
2021/12/30 14:16:00;;;;;;;120.00;54.53;;;5.20;99.90;;;;;;5039047;28;20266;-67
2021/12/30 14:18:54;;;;;;;122.00;54.83;;;5.20;99.90;;;;;;5044269;28;20224;-67
2021/12/30 14:21:44;;;;;;;124.50;55.63;;;5.20;99.90;;;;;;5041837;28;20239;-67
2021/12/30 14:24:33;;;;;;;128.47;57.03;;;5.20;99.90;;;;;;5056383;28;20227;-67
2021/12/30 14:27:25;;;;;;;130.07;55.23;;;5.20;99.90;;;;;;5042029;28;20213;-67